KPOF/POF METAR and TAF weather

Enter ICAO airport designator
Station Type Date Time Source
KPOF METAR 2020/04/07 05:53 UTC NOAA

KPOF 070553Z AUTO 00000KT 10SM CLR 17/14 A2997 RMK AO2 SLP144 60000 T01720139 10222 20172 402440100 58001 $


Station Type Date Time Source
KPOF Decoded METAR 2020/04/07 05:53 UTC NOAA

POPLAR BLUFF MUN AIRPORT, MO, United States (KPOF) 36-46N 090-19W 100M
Apr 07, 2020 - 01:53 AM EDT / 2020.04.07 0553 UTC
Wind: Calm:0
Visibility: 10 mile(s):0
Sky conditions: clear
Temperature: 63.0 F (17.2 C)
Dew Point: 57.0 F (13.9 C)
Relative Humidity: 80%
Pressure (altimeter): 29.97 in. Hg (1014 hPa)
Pressure tendency: 0.00 inches (0.1 hPa) lower than three hours ago
ob: KPOF 070553Z AUTO 00000KT 10SM CLR 17/14 A2997 RMK AO2 SLP144 60000 T01720139 10222 20172 402440100 58001
cycle: 6

Station Type Date Time Source
KPOF TAF UTC NOAA

Error!

Example: see airport list